createdAt,value
2022-09-09T00:01:38.804Z,4.90
2022-09-09T00:04:22.096Z,6.50
2022-09-09T00:07:04.748Z,4.60
2022-09-09T00:09:50.399Z,6.10
2022-09-09T00:12:32.991Z,5.80
2022-09-09T00:15:14.427Z,5.40
2022-09-09T00:17:55.822Z,5.60
2022-09-09T00:20:37.176Z,5.60
2022-09-09T00:23:21.233Z,5.90
2022-09-09T00:26:05.203Z,6.10
2022-09-09T00:28:46.561Z,6.50
2022-09-09T00:31:23.565Z,6.20
2022-09-09T00:34:02.371Z,6.00
2022-09-09T00:39:12.929Z,7.10
2022-09-09T00:42:01.413Z,7.00
2022-09-09T00:44:37.095Z,6.50
2022-09-09T00:47:28.518Z,7.00
2022-09-09T00:50:12.025Z,7.10
2022-09-09T00:52:55.236Z,6.60
2022-09-09T00:55:37.126Z,7.70
2022-09-09T00:58:11.377Z,7.40
2022-09-09T01:00:50.533Z,7.30
2022-09-09T01:03:32.179Z,7.50
2022-09-09T01:06:23.745Z,7.40
2022-09-09T01:09:18.997Z,7.50
2022-09-09T01:12:00.602Z,7.00
2022-09-09T01:14:45.850Z,7.70
2022-09-09T01:17:24.678Z,6.80
2022-09-09T01:20:11.364Z,7.40
2022-09-09T01:23:03.357Z,7.30
2022-09-09T01:26:12.454Z,7.70
2022-09-09T01:28:48.665Z,6.90
2022-09-09T01:31:26.946Z,7.20
2022-09-09T01:34:00.110Z,8.00
2022-09-09T01:36:43.598Z,8.00
2022-09-09T01:39:17.073Z,8.10
2022-09-09T01:41:51.555Z,7.40
2022-09-09T01:44:27.194Z,7.30
2022-09-09T01:47:00.523Z,7.60
2022-09-09T01:49:34.306Z,7.60
2022-09-09T01:52:13.638Z,8.10
2022-09-09T01:54:46.772Z,7.20
2022-09-09T01:57:30.669Z,7.30
2022-09-09T02:00:10.860Z,7.20
2022-09-09T02:02:57.998Z,7.20
2022-09-09T02:05:42.012Z,7.80
2022-09-09T02:08:32.180Z,7.60
2022-09-09T02:11:13.836Z,8.00
2022-09-09T02:13:57.633Z,8.30
2022-09-09T02:16:35.592Z,7.20
2022-09-09T02:19:14.714Z,7.70
2022-09-09T02:22:11.905Z,7.70
2022-09-09T02:24:47.513Z,8.60
2022-09-09T02:27:26.283Z,8.00
2022-09-09T02:30:03.494Z,8.00
2022-09-09T02:32:44.931Z,8.00
2022-09-09T02:35:22.826Z,7.80
2022-09-09T02:38:00.549Z,8.40
2022-09-09T02:40:33.984Z,9.40
2022-09-09T02:43:19.901Z,8.10
2022-09-09T02:46:03.699Z,8.40
2022-09-09T02:48:47.502Z,7.70
2022-09-09T02:51:27.087Z,8.30
2022-09-09T02:54:11.963Z,8.90
2022-09-09T02:56:51.317Z,7.80
2022-09-09T02:59:27.698Z,7.90
2022-09-09T03:02:01.581Z,8.00
2022-09-09T03:04:35.853Z,7.30
2022-09-09T03:07:08.988Z,8.30
2022-09-09T03:09:43.384Z,8.60
2022-09-09T03:12:17.636Z,8.10
2022-09-09T03:14:51.153Z,7.10
2022-09-09T03:17:25.023Z,7.20
2022-09-09T03:20:00.313Z,7.40
2022-09-09T03:22:33.826Z,6.10
2022-09-09T03:25:10.636Z,6.50
2022-09-09T03:27:43.774Z,6.90
2022-09-09T03:30:18.368Z,6.50
2022-09-09T03:32:52.053Z,6.30
2022-09-09T03:35:25.379Z,5.90
2022-09-09T03:37:58.964Z,6.40
2022-09-09T03:40:32.305Z,6.60
2022-09-09T03:43:05.399Z,7.00
2022-09-09T03:45:38.530Z,6.20
2022-09-09T03:48:13.277Z,6.00
2022-09-09T03:50:50.409Z,6.20
2022-09-09T03:53:25.933Z,6.20
2022-09-09T03:56:01.986Z,5.80
2022-09-09T03:58:37.256Z,7.30
2022-09-09T04:01:16.078Z,6.00
2022-09-09T04:03:49.953Z,6.40
2022-09-09T04:06:23.459Z,6.10
2022-09-09T04:08:56.796Z,5.70
2022-09-09T04:11:30.280Z,6.40
2022-09-09T04:14:05.503Z,5.70
2022-09-09T04:16:39.272Z,5.80
2022-09-09T04:19:13.730Z,6.60
2022-09-09T04:21:47.805Z,6.30
2022-09-09T04:24:21.488Z,6.20
2022-09-09T04:26:54.774Z,6.70
2022-09-09T04:29:27.968Z,6.70
2022-09-09T04:32:00.932Z,5.70
2022-09-09T04:34:34.165Z,5.40
2022-09-09T04:37:07.758Z,5.70
2022-09-09T04:39:41.006Z,6.30
2022-09-09T04:42:14.265Z,6.00
2022-09-09T04:44:49.053Z,6.30
2022-09-09T04:47:22.780Z,6.60
2022-09-09T04:49:56.267Z,5.10
2022-09-09T04:52:29.424Z,5.50
2022-09-09T04:55:03.123Z,5.90
2022-09-09T04:57:37.001Z,5.70
2022-09-09T05:00:14.138Z,5.40
2022-09-09T05:02:48.900Z,4.70
2022-09-09T05:05:22.478Z,5.50
2022-09-09T05:07:56.399Z,5.70
2022-09-09T05:10:32.344Z,5.90
2022-09-09T05:13:06.044Z,6.20
2022-09-09T05:15:40.016Z,4.90
2022-09-09T05:18:13.810Z,5.50
2022-09-09T05:20:46.881Z,5.30
2022-09-09T05:23:20.151Z,5.00
2022-09-09T05:26:00.638Z,5.60
2022-09-09T05:28:36.685Z,5.50
2022-09-09T05:31:12.671Z,5.70
2022-09-09T05:33:48.149Z,5.80
2022-09-09T05:36:22.886Z,5.00
2022-09-09T05:38:58.759Z,5.10
2022-09-09T05:41:33.088Z,5.20
2022-09-09T05:44:08.494Z,5.10
2022-09-09T05:46:46.049Z,6.60
2022-09-09T05:49:19.766Z,5.40
2022-09-09T05:51:54.226Z,4.70
2022-09-09T05:54:27.495Z,4.60
2022-09-09T05:57:04.647Z,5.30
2022-09-09T05:59:38.086Z,4.80
2022-09-09T06:02:13.885Z,5.60
2022-09-09T06:04:47.013Z,5.20
2022-09-09T06:07:24.075Z,5.50
2022-09-09T06:09:57.582Z,5.30
2022-09-09T06:12:34.426Z,5.40
2022-09-09T06:15:10.347Z,5.20
2022-09-09T06:17:44.441Z,5.80
2022-09-09T06:20:18.867Z,5.20
2022-09-09T06:22:52.255Z,5.10
2022-09-09T06:25:26.435Z,5.10
2022-09-09T06:27:59.651Z,5.30
2022-09-09T06:30:33.082Z,5.50
2022-09-09T06:33:07.223Z,6.30
2022-09-09T06:35:40.620Z,5.60
2022-09-09T06:38:13.697Z,5.80
2022-09-09T06:40:53.252Z,6.10
2022-09-09T06:43:27.256Z,6.10
2022-09-09T06:46:03.115Z,6.00
2022-09-09T06:48:36.285Z,6.50
2022-09-09T06:51:12.874Z,6.10
2022-09-09T06:53:48.901Z,6.60
2022-09-09T06:56:29.399Z,5.90
2022-09-09T06:59:05.251Z,6.10
2022-09-09T07:01:42.146Z,6.10
2022-09-09T07:04:17.891Z,5.90
2022-09-09T07:06:51.523Z,5.90
2022-09-09T07:09:28.776Z,6.40
2022-09-09T07:12:02.390Z,6.30
2022-09-09T07:14:39.358Z,6.90
2022-09-09T07:17:14.286Z,6.60
2022-09-09T07:19:49.754Z,6.80
2022-09-09T07:22:26.396Z,6.60
2022-09-09T07:25:00.540Z,7.40
2022-09-09T07:27:36.469Z,8.00
2022-09-09T07:30:14.946Z,7.10
2022-09-09T07:32:58.127Z,7.40
2022-09-09T07:35:32.091Z,7.60
2022-09-09T07:38:07.877Z,7.00
2022-09-09T07:40:41.774Z,8.00
2022-09-09T07:43:17.359Z,8.30
2022-09-09T07:45:59.506Z,8.40
2022-09-09T07:48:33.225Z,7.80
2022-09-09T07:51:14.945Z,7.80
2022-09-09T07:53:49.537Z,8.20
2022-09-09T07:56:24.491Z,8.00
2022-09-09T07:58:59.918Z,8.30
2022-09-09T08:01:36.885Z,8.30
2022-09-09T08:04:16.875Z,8.50
2022-09-09T08:06:54.145Z,8.60
2022-09-09T08:09:30.640Z,8.30
2022-09-09T08:12:15.670Z,9.40
2022-09-09T08:14:55.468Z,9.20
2022-09-09T08:17:32.849Z,9.50
2022-09-09T08:20:12.466Z,8.50
2022-09-09T08:22:46.694Z,9.00
2022-09-09T08:25:21.405Z,7.30
2022-09-09T08:27:57.433Z,9.30
2022-09-09T08:30:31.483Z,10.10
2022-09-09T08:33:06.689Z,9.00
2022-09-09T08:35:40.737Z,9.60
2022-09-09T08:38:15.685Z,9.40
2022-09-09T08:40:52.460Z,10.20
2022-09-09T08:43:30.747Z,11.40
2022-09-09T08:46:13.385Z,10.40
2022-09-09T08:48:56.898Z,10.00
2022-09-09T08:51:35.948Z,10.50
2022-09-09T08:54:11.380Z,11.50
2022-09-09T08:56:45.848Z,11.00
2022-09-09T08:59:21.712Z,10.90
2022-09-09T09:02:16.504Z,11.30
2022-09-09T09:05:08.516Z,11.10
2022-09-09T09:07:57.867Z,12.70
2022-09-09T09:10:48.186Z,12.60
2022-09-09T09:13:44.045Z,11.10
2022-09-09T09:16:29.658Z,11.80
2022-09-09T09:19:07.463Z,13.40
2022-09-09T09:21:45.080Z,14.40
2022-09-09T09:24:23.070Z,13.40
2022-09-09T09:26:56.980Z,12.50
2022-09-09T09:29:31.715Z,12.30
2022-09-09T09:32:09.134Z,12.90
2022-09-09T09:34:42.559Z,14.60
2022-09-09T09:37:26.131Z,13.90
2022-09-09T09:40:10.580Z,14.00
2022-09-09T09:42:54.555Z,15.00
2022-09-09T09:46:06.869Z,13.80
2022-09-09T09:48:41.713Z,14.80
2022-09-09T09:51:20.077Z,13.90
2022-09-09T09:53:57.198Z,14.10
2022-09-09T09:56:33.747Z,13.70
2022-09-09T09:59:17.817Z,12.50
2022-09-09T10:02:16.309Z,14.80
2022-09-09T10:04:50.613Z,16.10
2022-09-09T10:07:26.556Z,16.00
2022-09-09T10:10:01.958Z,15.10
2022-09-09T10:12:51.702Z,13.60
2022-09-09T10:15:38.102Z,14.00
2022-09-09T10:18:25.397Z,15.30
2022-09-09T10:21:09.031Z,15.10
2022-09-09T10:23:58.812Z,15.10
2022-09-09T10:26:47.667Z,14.70
2022-09-09T10:32:35.969Z,16.00
2022-09-09T10:35:15.129Z,15.30
2022-09-09T10:38:18.416Z,16.50
2022-09-09T10:41:09.809Z,16.60
2022-09-09T10:44:06.476Z,17.40
2022-09-09T10:46:56.366Z,16.70
2022-09-09T10:49:46.335Z,19.50
2022-09-09T10:52:26.907Z,17.70
2022-09-09T10:55:25.593Z,16.90
2022-09-09T10:58:03.235Z,17.00
2022-09-09T11:00:44.387Z,17.60
2022-09-09T11:03:31.910Z,17.40
2022-09-09T11:06:22.075Z,18.20
2022-09-09T11:08:58.416Z,17.10
2022-09-09T11:11:38.390Z,16.50
2022-09-09T11:14:19.068Z,17.50
2022-09-09T11:16:56.625Z,17.90
2022-09-09T11:19:36.892Z,18.00
2022-09-09T11:22:18.441Z,14.10
2022-09-09T11:24:55.964Z,16.90
2022-09-09T11:27:40.835Z,18.10
2022-09-09T11:30:56.229Z,18.30
2022-09-09T11:33:58.948Z,18.10
2022-09-09T11:36:45.899Z,17.60
2022-09-09T11:39:47.932Z,17.60
2022-09-09T11:42:31.842Z,18.80
2022-09-09T11:45:22.335Z,18.00
2022-09-09T11:48:00.535Z,18.70
2022-09-09T11:50:41.567Z,19.70
2022-09-09T11:53:26.731Z,19.60
2022-09-09T11:56:28.683Z,22.10
2022-09-09T11:59:08.976Z,21.80
2022-09-09T12:01:53.064Z,22.40
2022-09-09T12:04:59.379Z,20.60
2022-09-09T12:07:44.106Z,22.90
2022-09-09T12:10:30.052Z,23.60
2022-09-09T12:13:20.940Z,23.40
2022-09-09T12:15:55.616Z,20.60
2022-09-09T12:18:36.049Z,20.40
2022-09-09T12:21:20.791Z,22.20
2022-09-09T12:23:58.376Z,22.20
2022-09-09T12:26:40.870Z,20.80
2022-09-09T12:29:37.785Z,20.70
2022-09-09T12:32:34.891Z,22.40
2022-09-09T12:35:22.977Z,23.30
2022-09-09T12:38:01.438Z,21.90
2022-09-09T12:40:37.588Z,20.10
2022-09-09T12:43:25.931Z,23.10
2022-09-09T12:46:02.879Z,19.90
2022-09-09T12:48:43.947Z,23.90
2022-09-09T12:51:29.507Z,22.80
2022-09-09T12:54:06.789Z,22.20
2022-09-09T12:56:41.067Z,23.30
2022-09-09T12:59:28.096Z,24.90
2022-09-09T13:02:02.063Z,24.10
2022-09-09T13:04:36.573Z,21.70
2022-09-09T13:07:17.502Z,23.10
2022-09-09T13:09:53.767Z,23.10
2022-09-09T13:12:28.699Z,23.50
2022-09-09T13:15:03.654Z,25.80
2022-09-09T13:17:37.409Z,23.20
2022-09-09T13:20:22.457Z,20.20
2022-09-09T13:22:59.635Z,24.00
2022-09-09T13:26:00.735Z,22.00
2022-09-09T13:28:39.032Z,23.10
2022-09-09T13:31:28.649Z,22.90
2022-09-09T13:34:02.005Z,21.40
2022-09-09T13:36:37.549Z,23.00
2022-09-09T13:39:25.938Z,21.80
2022-09-09T13:42:00.772Z,24.60
2022-09-09T13:45:05.779Z,23.50
2022-09-09T13:47:56.687Z,22.60
2022-09-09T13:50:34.935Z,23.70
2022-09-09T13:53:11.705Z,22.60
2022-09-09T13:55:52.219Z,23.10
2022-09-09T13:58:31.182Z,24.20
2022-09-09T14:01:29.345Z,22.90
2022-09-09T14:04:04.890Z,21.70
2022-09-09T14:06:44.924Z,22.90
2022-09-09T14:09:27.117Z,23.80
2022-09-09T14:12:01.042Z,23.80
2022-09-09T14:14:46.614Z,21.80
2022-09-09T14:17:21.303Z,21.70
2022-09-09T14:19:58.784Z,22.30
2022-09-09T14:22:40.517Z,23.90
2022-09-09T14:25:15.622Z,19.40
2022-09-09T14:27:54.676Z,20.60
2022-09-09T14:30:42.702Z,21.30
2022-09-09T14:33:18.641Z,21.20
2022-09-09T14:36:00.410Z,21.70
2022-09-09T14:41:18.329Z,19.70
2022-09-09T14:43:59.015Z,20.40
2022-09-09T14:46:35.181Z,19.50
2022-09-09T14:49:08.686Z,21.00
2022-09-09T14:51:42.103Z,21.00
2022-09-09T14:54:16.144Z,23.40
2022-09-09T14:56:58.435Z,20.30
2022-09-09T14:59:31.752Z,21.50
2022-09-09T15:02:05.731Z,22.10
2022-09-09T15:04:41.872Z,20.60
2022-09-09T15:07:15.051Z,20.30
2022-09-09T15:10:10.534Z,21.50
2022-09-09T15:12:44.204Z,21.10
2022-09-09T15:15:17.739Z,21.30
2022-09-09T15:17:50.956Z,21.80
2022-09-09T15:20:24.241Z,21.30
2022-09-09T15:22:57.691Z,21.60
2022-09-09T15:25:31.028Z,21.00
2022-09-09T15:28:04.402Z,19.40
2022-09-09T15:30:38.017Z,19.70
2022-09-09T15:33:13.481Z,20.60
2022-09-09T15:35:47.379Z,20.70
2022-09-09T15:38:20.910Z,21.20
2022-09-09T15:40:59.869Z,21.30
2022-09-09T15:43:33.077Z,19.80
2022-09-09T15:46:25.693Z,19.70
2022-09-09T15:49:01.435Z,20.30
2022-09-09T15:51:48.042Z,21.50
2022-09-09T15:54:25.276Z,20.10
2022-09-09T15:57:01.155Z,19.10
2022-09-09T15:59:38.096Z,19.30
2022-09-09T16:02:12.140Z,20.50
2022-09-09T16:04:54.986Z,19.40
2022-09-09T16:07:28.336Z,19.30
2022-09-09T16:10:02.018Z,19.10
2022-09-09T16:12:36.010Z,20.20
2022-09-09T16:15:11.621Z,18.60
2022-09-09T16:17:46.105Z,18.50
2022-09-09T16:20:20.381Z,18.10
2022-09-09T16:22:53.485Z,17.00
2022-09-09T16:25:27.008Z,17.50
2022-09-09T16:28:03.204Z,18.50
2022-09-09T16:30:39.677Z,21.00
2022-09-09T16:33:15.938Z,19.90
2022-09-09T16:35:50.491Z,20.40
2022-09-09T16:38:23.753Z,20.90
2022-09-09T16:41:03.328Z,20.10
2022-09-09T16:43:37.808Z,22.60
2022-09-09T16:46:18.262Z,20.40
2022-09-09T16:48:51.817Z,20.40
2022-09-09T16:51:27.103Z,21.20
2022-09-09T16:54:03.218Z,21.90
2022-09-09T16:56:38.235Z,20.50
2022-09-09T16:59:14.572Z,20.20
2022-09-09T17:01:49.393Z,20.10
2022-09-09T17:04:25.453Z,21.20
2022-09-09T17:09:35.237Z,21.80
2022-09-09T17:12:13.347Z,20.00
2022-09-09T17:17:40.365Z,18.00
2022-09-09T17:20:18.289Z,19.10
2022-09-09T17:22:54.602Z,20.70
2022-09-09T17:25:27.854Z,21.50
2022-09-09T17:28:02.878Z,20.40
2022-09-09T17:30:39.438Z,18.90
2022-09-09T17:33:12.582Z,19.00
2022-09-09T17:35:49.569Z,18.30
2022-09-09T17:38:28.059Z,19.50
2022-09-09T17:41:11.925Z,21.20
2022-09-09T17:43:45.843Z,18.50
2022-09-09T17:46:22.768Z,18.60
2022-09-09T17:48:59.260Z,18.80
2022-09-09T17:51:35.141Z,20.30
2022-09-09T17:54:10.384Z,19.80
2022-09-09T17:56:45.300Z,18.70
2022-09-09T17:59:19.875Z,17.20
2022-09-09T18:02:14.927Z,19.00
2022-09-09T18:04:48.611Z,17.20
2022-09-09T18:07:22.287Z,17.60
2022-09-09T18:10:05.959Z,15.50
2022-09-09T18:12:39.258Z,14.40
2022-09-09T18:15:20.962Z,14.30
2022-09-09T18:18:07.348Z,16.30
2022-09-09T18:21:06.863Z,16.00
2022-09-09T18:23:42.699Z,19.60
2022-09-09T18:26:17.981Z,16.40
2022-09-09T18:28:54.152Z,14.70
2022-09-09T18:31:29.323Z,15.30
2022-09-09T18:34:04.402Z,16.00
2022-09-09T18:36:40.457Z,15.50
2022-09-09T18:39:15.866Z,16.10
2022-09-09T18:41:52.363Z,16.70
2022-09-09T18:44:30.753Z,15.40
2022-09-09T18:47:05.271Z,14.60
2022-09-09T18:49:38.992Z,14.80
2022-09-09T18:52:13.105Z,14.20
2022-09-09T18:54:46.701Z,12.70
2022-09-09T18:57:21.115Z,14.60
2022-09-09T18:59:55.757Z,13.80
2022-09-09T19:02:31.518Z,14.20
2022-09-09T19:05:08.465Z,13.10
2022-09-09T19:07:42.256Z,14.80
2022-09-09T19:10:18.779Z,13.60
2022-09-09T19:12:52.704Z,14.90
2022-09-09T19:15:26.203Z,14.60
2022-09-09T19:18:03.981Z,13.80
2022-09-09T19:20:42.496Z,14.20
2022-09-09T19:23:36.184Z,13.60
2022-09-09T19:26:11.385Z,14.20
2022-09-09T19:28:56.473Z,13.40
2022-09-09T19:31:31.104Z,13.50
2022-09-09T19:34:04.549Z,13.50
2022-09-09T19:36:38.107Z,14.70
2022-09-09T19:39:13.136Z,13.40
2022-09-09T19:41:47.431Z,12.50
2022-09-09T19:44:22.282Z,13.70
2022-09-09T19:46:59.983Z,13.40
2022-09-09T19:49:33.548Z,14.80
2022-09-09T19:52:07.131Z,13.30
2022-09-09T19:54:40.383Z,13.40
2022-09-09T19:57:13.972Z,14.00
2022-09-09T19:59:47.584Z,13.20
2022-09-09T20:02:58.079Z,13.50
2022-09-09T20:05:38.392Z,13.90
2022-09-09T20:08:11.574Z,13.60
2022-09-09T20:10:54.684Z,13.30
2022-09-09T20:13:27.784Z,12.60
2022-09-09T20:16:04.220Z,14.00
2022-09-09T20:18:48.135Z,13.80
2022-09-09T20:21:26.363Z,13.50
2022-09-09T20:24:03.881Z,14.20
2022-09-09T20:26:48.468Z,15.10
2022-09-09T20:29:26.488Z,15.40
2022-09-09T20:31:59.571Z,14.40
2022-09-09T20:34:32.975Z,14.20
2022-09-09T20:37:06.482Z,14.20
2022-09-09T20:39:40.334Z,14.40
2022-09-09T20:42:13.522Z,14.40
2022-09-09T20:44:47.379Z,14.40
2022-09-09T20:47:20.597Z,13.40
2022-09-09T20:49:53.825Z,13.80
2022-09-09T20:52:27.635Z,14.70
2022-09-09T20:55:01.021Z,13.80
2022-09-09T20:57:37.549Z,12.40
2022-09-09T21:00:13.671Z,12.20
2022-09-09T21:02:46.910Z,11.50
2022-09-09T21:05:24.086Z,12.60
2022-09-09T21:08:06.905Z,12.40
2022-09-09T21:10:46.142Z,12.10
2022-09-09T21:13:19.407Z,12.40
2022-09-09T21:15:53.915Z,12.10
2022-09-09T21:18:29.558Z,11.70
2022-09-09T21:21:03.169Z,11.40
2022-09-09T21:23:37.126Z,11.80
2022-09-09T21:26:11.335Z,11.70
2022-09-09T21:28:44.791Z,11.70
2022-09-09T21:31:21.754Z,12.40
2022-09-09T21:33:59.187Z,11.70
2022-09-09T21:36:34.125Z,11.10
2022-09-09T21:39:07.613Z,12.40
2022-09-09T21:41:41.057Z,11.20
2022-09-09T21:44:14.750Z,11.50
2022-09-09T21:46:48.325Z,12.20
2022-09-09T21:49:21.798Z,10.60
2022-09-09T21:51:55.469Z,11.30
2022-09-09T21:54:32.010Z,11.70
2022-09-09T21:57:07.884Z,10.20
2022-09-09T21:59:42.449Z,10.50
2022-09-09T22:02:16.978Z,11.00
2022-09-09T22:04:53.778Z,10.90
2022-09-09T22:07:26.992Z,9.20
2022-09-09T22:10:00.565Z,9.90
2022-09-09T22:12:35.557Z,10.50
2022-09-09T22:15:10.272Z,10.20
2022-09-09T22:17:43.439Z,9.90
2022-09-09T22:20:16.817Z,9.90
2022-09-09T22:22:49.909Z,10.10
2022-09-09T22:25:23.484Z,9.80
2022-09-09T22:27:59.001Z,11.10
2022-09-09T22:30:32.225Z,10.60
2022-09-09T22:33:05.548Z,9.80
2022-09-09T22:35:44.196Z,9.20
2022-09-09T22:38:18.076Z,9.60
2022-09-09T22:40:52.297Z,9.70
2022-09-09T22:43:25.908Z,10.50
2022-09-09T22:45:59.047Z,10.90
2022-09-09T22:48:35.633Z,11.10
2022-09-09T22:51:11.111Z,9.90
2022-09-09T22:53:49.701Z,9.80
2022-09-09T22:56:23.117Z,10.00
2022-09-09T22:59:07.870Z,9.80
2022-09-09T23:01:41.226Z,9.90
2022-09-09T23:04:15.178Z,9.90
2022-09-09T23:06:48.245Z,9.20
2022-09-09T23:09:21.625Z,9.10
2022-09-09T23:11:55.029Z,10.50
2022-09-09T23:14:34.294Z,10.30
2022-09-09T23:17:07.556Z,10.50
2022-09-09T23:19:40.684Z,8.70
2022-09-09T23:22:15.456Z,9.80
2022-09-09T23:24:49.415Z,9.80
2022-09-09T23:27:22.916Z,9.50
2022-09-09T23:29:57.065Z,8.70
2022-09-09T23:32:40.710Z,8.80
2022-09-09T23:35:14.262Z,9.30
2022-09-09T23:37:54.799Z,8.90
2022-09-09T23:40:27.931Z,9.00
2022-09-09T23:43:01.100Z,8.10
2022-09-09T23:45:34.167Z,8.40
2022-09-09T23:48:08.013Z,7.50
2022-09-09T23:50:41.376Z,8.20
2022-09-09T23:53:18.064Z,8.10
2022-09-09T23:55:55.117Z,7.60
2022-09-09T23:58:28.381Z,7.90
